createdAt,value
2023-02-03T00:00:17.141Z,10.11
2023-02-03T00:02:43.900Z,10.15
2023-02-03T00:05:10.447Z,10.17
2023-02-03T00:07:39.343Z,10.14
2023-02-03T00:10:07.453Z,10.11
2023-02-03T00:12:34.825Z,10.20
2023-02-03T00:15:01.363Z,10.13
2023-02-03T00:17:30.849Z,10.16
2023-02-03T00:19:57.422Z,10.19
2023-02-03T00:22:24.052Z,10.22
2023-02-03T00:24:50.691Z,10.27
2023-02-03T00:27:17.390Z,10.26
2023-02-03T00:29:43.883Z,10.22
2023-02-03T00:32:10.609Z,10.29
2023-02-03T00:34:37.344Z,10.25
2023-02-03T00:37:04.002Z,10.29
2023-02-03T00:39:30.938Z,10.31
2023-02-03T00:41:57.583Z,10.33
2023-02-03T00:44:24.226Z,10.37
2023-02-03T00:46:52.542Z,10.37
2023-02-03T00:49:19.186Z,10.23
2023-02-03T00:51:46.088Z,10.28
2023-02-03T00:54:14.190Z,10.32
2023-02-03T00:56:41.324Z,10.22
2023-02-03T00:59:11.006Z,10.31
2023-02-03T01:01:37.615Z,10.36
2023-02-03T01:04:04.397Z,10.31
2023-02-03T01:06:33.256Z,10.28
2023-02-03T01:09:03.251Z,10.35
2023-02-03T01:11:29.905Z,10.34
2023-02-03T01:13:56.881Z,10.33
2023-02-03T01:16:25.634Z,10.37
2023-02-03T01:18:53.117Z,10.41
2023-02-03T01:21:24.119Z,10.38
2023-02-03T01:23:52.114Z,10.28
2023-02-03T01:26:20.936Z,10.31
2023-02-03T01:28:52.963Z,10.29
2023-02-03T01:31:23.938Z,10.34
2023-02-03T01:33:52.689Z,10.36
2023-02-03T01:36:19.640Z,10.31
2023-02-03T01:38:46.870Z,10.28
2023-02-03T01:41:21.303Z,10.29
2023-02-03T01:43:50.670Z,10.33
2023-02-03T01:46:41.818Z,10.29
2023-02-03T01:49:12.971Z,10.23
2023-02-03T01:51:42.130Z,10.27
2023-02-03T01:54:14.940Z,10.27
2023-02-03T01:56:47.153Z,10.20
2023-02-03T01:59:19.882Z,10.17
2023-02-03T02:01:47.538Z,10.17
2023-02-03T02:04:14.832Z,10.19
2023-02-03T02:06:41.689Z,10.17
2023-02-03T02:09:12.532Z,10.17
2023-02-03T02:11:42.437Z,10.17
2023-02-03T02:14:09.120Z,10.17
2023-02-03T02:16:38.589Z,10.11
2023-02-03T02:19:08.055Z,10.16
2023-02-03T02:22:06.377Z,10.12
2023-02-03T02:25:16.138Z,10.12
2023-02-03T02:28:14.038Z,10.16
2023-02-03T02:31:06.014Z,10.24
2023-02-03T02:33:43.099Z,10.18
2023-02-03T02:36:52.373Z,10.20
2023-02-03T02:39:46.141Z,10.15
2023-02-03T02:42:50.922Z,10.27
2023-02-03T02:45:26.394Z,10.24
2023-02-03T02:48:04.912Z,10.24
2023-02-03T02:50:37.352Z,10.29
2023-02-03T02:53:06.353Z,10.31
2023-02-03T02:55:37.384Z,10.36
2023-02-03T02:58:10.743Z,10.35
2023-02-03T03:00:39.173Z,10.43
2023-02-03T03:03:20.814Z,10.41
2023-02-03T03:05:57.967Z,10.44
2023-02-03T03:08:35.206Z,10.44
2023-02-03T03:11:03.239Z,10.54
2023-02-03T03:13:34.979Z,10.48
2023-02-03T03:16:07.656Z,10.56
2023-02-03T03:18:46.922Z,10.53
2023-02-03T03:21:27.989Z,10.57
2023-02-03T03:23:57.524Z,10.59
2023-02-03T03:26:46.040Z,10.59
2023-02-03T03:29:29.182Z,10.53
2023-02-03T03:31:57.023Z,10.65
2023-02-03T03:34:24.135Z,10.65
2023-02-03T03:36:56.575Z,10.57
2023-02-03T03:39:32.891Z,10.56
2023-02-03T03:42:32.076Z,10.65
2023-02-03T03:45:10.992Z,10.59
2023-02-03T03:47:40.874Z,10.55
2023-02-03T03:50:12.311Z,10.45
2023-02-03T03:52:40.509Z,10.54
2023-02-03T03:55:10.678Z,10.54
2023-02-03T03:57:42.013Z,10.55
2023-02-03T04:00:14.221Z,10.53
2023-02-03T04:02:46.499Z,10.56
2023-02-03T04:05:14.015Z,10.57
2023-02-03T04:07:46.008Z,10.58
2023-02-03T04:10:36.806Z,10.64
2023-02-03T04:13:04.127Z,10.61
2023-02-03T04:15:31.698Z,10.63
2023-02-03T04:17:58.950Z,10.62
2023-02-03T04:20:28.900Z,10.60
2023-02-03T04:22:56.950Z,10.56
2023-02-03T04:25:23.864Z,10.66
2023-02-03T04:27:50.839Z,10.57
2023-02-03T04:30:21.077Z,10.65
2023-02-03T04:32:48.546Z,10.62
2023-02-03T04:35:15.808Z,10.71
2023-02-03T04:37:44.350Z,10.61
2023-02-03T04:40:11.804Z,10.67
2023-02-03T04:42:39.436Z,10.66
2023-02-03T04:45:07.928Z,10.65
2023-02-03T04:47:34.789Z,10.68
2023-02-03T04:50:01.514Z,10.56
2023-02-03T04:52:28.669Z,10.71
2023-02-03T04:54:55.361Z,10.71
2023-02-03T04:57:22.104Z,10.63
2023-02-03T04:59:48.660Z,10.64
2023-02-03T05:02:15.365Z,10.64
2023-02-03T05:04:42.151Z,10.67
2023-02-03T05:07:09.879Z,10.69
2023-02-03T05:09:36.598Z,10.76
2023-02-03T05:12:03.492Z,10.69
2023-02-03T05:14:30.062Z,10.74
2023-02-03T05:16:57.056Z,10.60
2023-02-03T05:19:23.664Z,10.67
2023-02-03T05:21:50.724Z,10.70
2023-02-03T05:24:17.527Z,10.61
2023-02-03T05:26:44.249Z,10.49
2023-02-03T05:29:11.964Z,10.56
2023-02-03T05:31:38.676Z,10.64
2023-02-03T05:34:05.527Z,10.63
2023-02-03T05:36:32.337Z,10.60
2023-02-03T05:38:59.238Z,10.62
2023-02-03T05:41:44.887Z,10.58
2023-02-03T05:44:11.577Z,10.51
2023-02-03T05:46:38.222Z,10.69
2023-02-03T05:49:05.012Z,10.60
2023-02-03T05:51:31.734Z,10.60
2023-02-03T05:53:58.966Z,10.60
2023-02-03T05:56:26.363Z,10.66
2023-02-03T05:58:53.563Z,10.60
2023-02-03T06:01:21.125Z,10.61
2023-02-03T06:03:51.764Z,10.66
2023-02-03T06:06:18.627Z,10.69
2023-02-03T06:08:45.403Z,10.70
2023-02-03T06:11:13.536Z,10.75
2023-02-03T06:13:40.251Z,10.67
2023-02-03T06:16:07.440Z,10.75
2023-02-03T06:18:37.033Z,10.69
2023-02-03T06:21:03.711Z,10.67
2023-02-03T06:23:31.523Z,10.70
2023-02-03T06:26:00.285Z,10.67
2023-02-03T06:28:27.717Z,10.67
2023-02-03T06:30:54.441Z,10.65
2023-02-03T06:33:21.541Z,10.67
2023-02-03T06:35:48.099Z,10.64
2023-02-03T06:38:14.713Z,10.61
2023-02-03T06:40:41.313Z,10.64
2023-02-03T06:43:09.251Z,10.65
2023-02-03T06:45:36.036Z,10.68
2023-02-03T06:48:02.761Z,10.63
2023-02-03T06:50:30.038Z,10.69
2023-02-03T06:52:56.904Z,10.55
2023-02-03T06:55:23.737Z,10.61
2023-02-03T06:57:50.669Z,10.56
2023-02-03T07:00:19.675Z,10.72
2023-02-03T07:02:52.941Z,10.61
2023-02-03T07:05:19.919Z,10.60
2023-02-03T07:07:46.862Z,10.62
2023-02-03T07:10:13.574Z,10.65
2023-02-03T07:12:40.305Z,10.66
2023-02-03T07:15:07.506Z,10.69
2023-02-03T07:17:35.707Z,10.66
2023-02-03T07:20:04.585Z,10.67
2023-02-03T07:22:31.171Z,10.64
2023-02-03T07:24:57.865Z,10.70
2023-02-03T07:27:25.304Z,10.74
2023-02-03T07:29:52.098Z,10.75
2023-02-03T07:32:18.758Z,10.66
2023-02-03T07:34:45.486Z,10.71
2023-02-03T07:37:13.195Z,10.67
2023-02-03T07:39:39.921Z,10.64
2023-02-03T07:42:06.656Z,10.64
2023-02-03T07:44:44.101Z,10.66
2023-02-03T07:47:21.420Z,10.60
2023-02-03T07:49:48.191Z,10.65
2023-02-03T07:52:15.340Z,10.65
2023-02-03T07:54:45.340Z,10.70
2023-02-03T07:57:12.610Z,10.67
2023-02-03T07:59:39.639Z,10.61
2023-02-03T08:02:06.237Z,10.74
2023-02-03T08:04:37.713Z,10.69
2023-02-03T08:07:05.083Z,10.66
2023-02-03T08:09:31.642Z,10.66
2023-02-03T08:11:59.007Z,10.70
2023-02-03T08:14:25.649Z,10.69
2023-02-03T08:16:52.359Z,10.73
2023-02-03T08:19:19.005Z,10.70
2023-02-03T08:21:46.094Z,10.65
2023-02-03T08:24:12.701Z,10.66
2023-02-03T08:26:39.845Z,10.67
2023-02-03T08:29:07.232Z,10.76
2023-02-03T08:31:37.192Z,10.64
2023-02-03T08:34:03.906Z,10.62
2023-02-03T08:36:30.514Z,10.72
2023-02-03T08:38:57.173Z,10.65
2023-02-03T08:41:23.857Z,10.71
2023-02-03T08:43:50.907Z,10.73
2023-02-03T08:46:18.958Z,10.78
2023-02-03T08:48:46.028Z,10.71
2023-02-03T08:51:17.207Z,10.66
2023-02-03T08:53:44.051Z,10.65
2023-02-03T08:56:12.282Z,10.65
2023-02-03T08:58:39.763Z,10.69
2023-02-03T09:01:16.084Z,10.73
2023-02-03T09:03:43.113Z,10.77
2023-02-03T09:06:13.000Z,10.85
2023-02-03T09:08:39.890Z,10.92
2023-02-03T09:11:14.721Z,10.93
2023-02-03T09:13:48.073Z,10.89
2023-02-03T09:16:19.572Z,10.90
2023-02-03T09:18:46.748Z,10.94
2023-02-03T09:21:31.698Z,10.97
2023-02-03T09:24:03.560Z,11.16
2023-02-03T09:26:30.312Z,11.20
2023-02-03T09:28:56.947Z,11.20
2023-02-03T09:31:23.722Z,11.35
2023-02-03T09:33:50.441Z,11.32
2023-02-03T09:36:17.073Z,11.26
2023-02-03T09:38:43.707Z,11.39
2023-02-03T09:41:11.939Z,11.24
2023-02-03T09:43:57.875Z,11.25
2023-02-03T09:46:38.143Z,11.25
2023-02-03T09:49:24.025Z,11.21
2023-02-03T09:51:56.822Z,11.23
2023-02-03T09:54:47.201Z,11.30
2023-02-03T09:57:27.170Z,11.27
2023-02-03T09:59:57.086Z,11.35
2023-02-03T10:03:00.862Z,11.46
2023-02-03T10:05:49.758Z,11.43
2023-02-03T10:08:25.391Z,11.58
2023-02-03T10:11:22.431Z,11.58
2023-02-03T10:14:27.218Z,11.62
2023-02-03T10:17:10.169Z,11.75
2023-02-03T10:20:09.235Z,11.77
2023-02-03T10:22:48.685Z,11.90
2023-02-03T10:25:41.470Z,11.84
2023-02-03T10:28:18.591Z,11.80
2023-02-03T10:30:54.049Z,11.95
2023-02-03T10:33:22.185Z,11.80
2023-02-03T10:36:04.525Z,11.88
2023-02-03T10:39:07.371Z,12.07
2023-02-03T10:41:34.532Z,12.02
2023-02-03T10:44:05.357Z,12.02
2023-02-03T10:46:39.289Z,11.98
2023-02-03T10:49:05.998Z,12.18
2023-02-03T10:51:49.747Z,12.18
2023-02-03T10:54:34.653Z,12.23
2023-02-03T10:57:05.996Z,12.29
2023-02-03T10:59:36.147Z,12.32
2023-02-03T11:02:20.816Z,12.29
2023-02-03T11:04:49.091Z,12.21
2023-02-03T11:07:42.088Z,12.38
2023-02-03T11:10:40.910Z,12.21
2023-02-03T11:13:21.484Z,12.33
2023-02-03T11:16:14.416Z,12.38
2023-02-03T11:18:57.720Z,12.10
2023-02-03T11:21:32.554Z,12.12
2023-02-03T11:24:22.566Z,12.23
2023-02-03T11:26:59.405Z,12.11
2023-02-03T11:29:31.915Z,12.04
2023-02-03T11:32:01.909Z,12.20
2023-02-03T11:34:30.243Z,12.26
2023-02-03T11:36:57.462Z,12.42
2023-02-03T11:39:27.811Z,12.43
2023-02-03T11:41:55.051Z,12.42
2023-02-03T11:44:31.392Z,12.47
2023-02-03T11:47:07.488Z,12.52
2023-02-03T11:49:49.679Z,12.52
2023-02-03T11:52:45.044Z,12.59
2023-02-03T11:55:57.466Z,12.70
2023-02-03T11:58:48.607Z,12.58
2023-02-03T12:01:37.272Z,12.76
2023-02-03T12:04:28.302Z,12.85
2023-02-03T12:07:07.345Z,12.88
2023-02-03T12:09:55.824Z,12.74
2023-02-03T12:12:25.398Z,12.82
2023-02-03T12:15:25.018Z,12.63
2023-02-03T12:18:02.292Z,12.64
2023-02-03T12:20:56.284Z,12.68
2023-02-03T12:23:47.791Z,12.59
2023-02-03T12:26:25.051Z,12.66
2023-02-03T12:29:15.794Z,12.63
2023-02-03T12:32:06.800Z,12.58
2023-02-03T12:34:43.176Z,12.41
2023-02-03T12:37:19.849Z,12.65
2023-02-03T12:39:53.398Z,12.45
2023-02-03T12:42:37.958Z,12.47
2023-02-03T12:45:31.011Z,12.54
2023-02-03T12:48:12.803Z,12.47
2023-02-03T12:50:48.536Z,12.45
2023-02-03T12:53:31.027Z,12.48
2023-02-03T12:56:10.847Z,12.65
2023-02-03T12:58:56.806Z,12.50
2023-02-03T13:01:46.199Z,12.47
2023-02-03T13:04:26.216Z,12.55
2023-02-03T13:07:17.437Z,12.60
2023-02-03T13:09:59.976Z,12.73
2023-02-03T13:12:31.752Z,12.73
2023-02-03T13:15:34.971Z,12.58
2023-02-03T13:18:27.608Z,12.53
2023-02-03T13:20:54.775Z,12.48
2023-02-03T13:23:22.669Z,12.61
2023-02-03T13:26:08.627Z,12.57
2023-02-03T13:28:57.275Z,12.66
2023-02-03T13:31:36.007Z,12.57
2023-02-03T13:34:30.372Z,12.65
2023-02-03T13:37:15.484Z,12.56
2023-02-03T13:39:45.508Z,12.57
2023-02-03T13:42:18.454Z,12.53
2023-02-03T13:44:50.293Z,12.42
2023-02-03T13:47:21.627Z,12.50
2023-02-03T13:50:01.206Z,12.48
2023-02-03T13:52:45.794Z,12.61
2023-02-03T13:55:39.947Z,12.41
2023-02-03T13:58:08.462Z,12.46
2023-02-03T14:00:43.942Z,12.57
2023-02-03T14:03:26.052Z,12.55
2023-02-03T14:05:57.009Z,12.61
2023-02-03T14:08:29.608Z,12.57
2023-02-03T14:11:33.295Z,12.46
2023-02-03T14:14:05.792Z,12.48
2023-02-03T14:16:37.380Z,12.44
2023-02-03T14:19:25.062Z,12.33
2023-02-03T14:21:55.169Z,12.44
2023-02-03T14:24:22.836Z,12.36
2023-02-03T14:27:02.477Z,12.41
2023-02-03T14:29:30.487Z,12.37
2023-02-03T14:32:02.709Z,12.44
2023-02-03T14:34:38.672Z,12.41
2023-02-03T14:37:23.679Z,12.41
2023-02-03T14:40:18.569Z,12.37
2023-02-03T14:43:28.289Z,12.32
2023-02-03T14:46:25.443Z,12.07
2023-02-03T14:49:13.964Z,12.05
2023-02-03T14:52:01.929Z,12.10
2023-02-03T14:54:56.129Z,12.13
2023-02-03T14:57:47.698Z,12.13
2023-02-03T15:00:34.783Z,12.23
2023-02-03T15:03:10.713Z,12.25
2023-02-03T15:05:48.003Z,12.25
2023-02-03T15:08:36.769Z,12.17
2023-02-03T15:11:31.702Z,12.15
2023-02-03T15:14:34.139Z,12.09
2023-02-03T15:17:04.513Z,12.18
2023-02-03T15:19:41.363Z,12.18
2023-02-03T15:22:23.265Z,12.03
2023-02-03T15:24:53.038Z,12.12
2023-02-03T15:27:22.903Z,12.08
2023-02-03T15:29:49.644Z,12.03
2023-02-03T15:32:27.317Z,11.93
2023-02-03T15:34:57.924Z,11.94
2023-02-03T15:38:01.635Z,11.95
2023-02-03T15:40:38.207Z,12.00
2023-02-03T15:43:10.648Z,11.93
2023-02-03T15:45:46.157Z,11.91
2023-02-03T15:48:25.763Z,11.84
2023-02-03T15:50:59.222Z,11.79
2023-02-03T15:53:45.460Z,11.79
2023-02-03T15:56:21.996Z,11.86
2023-02-03T15:58:49.741Z,11.78
2023-02-03T16:01:23.124Z,11.81
2023-02-03T16:03:52.856Z,11.81
2023-02-03T16:06:36.191Z,11.83
2023-02-03T16:09:06.838Z,11.81
2023-02-03T16:11:34.700Z,11.73
2023-02-03T16:14:07.559Z,11.76
2023-02-03T16:16:36.376Z,11.64
2023-02-03T16:19:06.450Z,11.75
2023-02-03T16:21:51.403Z,11.78
2023-02-03T16:24:47.628Z,11.77
2023-02-03T16:27:31.399Z,11.81
2023-02-03T16:30:23.147Z,11.76
2023-02-03T16:33:27.070Z,11.67
2023-02-03T16:36:13.544Z,11.64
2023-02-03T16:39:07.223Z,11.66
2023-02-03T16:41:52.609Z,11.63
2023-02-03T16:44:40.166Z,11.52
2023-02-03T16:47:58.021Z,11.48
2023-02-03T16:50:43.325Z,11.45
2023-02-03T16:53:16.606Z,11.39
2023-02-03T16:55:44.003Z,11.44
2023-02-03T16:58:13.734Z,11.39
2023-02-03T17:00:42.572Z,11.33
2023-02-03T17:03:13.178Z,11.35
2023-02-03T17:05:42.435Z,11.31
2023-02-03T17:08:09.455Z,11.37
2023-02-03T17:10:38.818Z,11.34
2023-02-03T17:13:06.075Z,11.36
2023-02-03T17:15:33.290Z,11.30
2023-02-03T17:18:02.575Z,11.26
2023-02-03T17:20:29.334Z,11.35
2023-02-03T17:22:56.058Z,11.36
2023-02-03T17:25:23.052Z,11.37
2023-02-03T17:27:49.664Z,11.32
2023-02-03T17:30:17.404Z,11.36
2023-02-03T17:32:44.057Z,11.34
2023-02-03T17:35:11.201Z,11.38
2023-02-03T17:37:39.178Z,11.39
2023-02-03T17:54:04.872Z,11.42
2023-02-03T17:56:33.848Z,11.40
2023-02-03T17:59:03.532Z,11.39
2023-02-03T18:01:32.161Z,11.32
2023-02-03T18:04:01.874Z,11.27
2023-02-03T18:06:30.111Z,11.28
2023-02-03T18:09:01.993Z,11.30
2023-02-03T18:11:30.701Z,11.21
2023-02-03T18:13:57.561Z,11.22
2023-02-03T18:16:29.523Z,11.30
2023-02-03T18:18:58.133Z,11.24
2023-02-03T18:21:26.535Z,11.17
2023-02-03T18:23:58.591Z,11.11
2023-02-03T18:26:28.732Z,11.16
2023-02-03T18:28:56.525Z,11.12
2023-02-03T18:31:25.405Z,11.14
2023-02-03T18:33:52.977Z,11.16
2023-02-03T18:36:26.590Z,11.23
2023-02-03T18:38:56.380Z,11.19
2023-02-03T18:41:26.148Z,11.19
2023-02-03T18:43:53.184Z,11.21
2023-02-03T18:46:28.291Z,11.17
2023-02-03T18:48:56.383Z,11.19
2023-02-03T18:51:24.070Z,11.10
2023-02-03T18:53:51.579Z,11.07
2023-02-03T18:56:23.677Z,11.05
2023-02-03T18:58:51.198Z,11.12
2023-02-03T19:01:31.295Z,11.08
2023-02-03T19:04:03.315Z,11.11
2023-02-03T19:06:31.786Z,11.09
2023-02-03T19:08:59.394Z,11.16
2023-02-03T19:11:30.874Z,11.08
2023-02-03T19:13:58.578Z,11.10
2023-02-03T19:16:25.791Z,11.11
2023-02-03T19:18:53.672Z,11.03
2023-02-03T19:21:23.437Z,11.04
2023-02-03T19:23:51.214Z,11.05
2023-02-03T19:26:18.452Z,11.05
2023-02-03T19:28:45.963Z,10.89
2023-02-03T19:31:15.405Z,10.87
2023-02-03T19:33:43.132Z,10.90
2023-02-03T19:36:11.683Z,10.85
2023-02-03T19:38:39.124Z,10.84
2023-02-03T19:41:07.422Z,10.89
2023-02-03T19:43:34.205Z,10.85
2023-02-03T19:46:00.927Z,10.84
2023-02-03T19:48:28.170Z,10.79
2023-02-03T19:50:54.896Z,10.73
2023-02-03T19:53:21.769Z,10.77
2023-02-03T19:55:48.533Z,10.73
2023-02-03T19:58:15.503Z,10.74
2023-02-03T20:00:43.759Z,10.57
2023-02-03T20:03:10.622Z,10.49
2023-02-03T20:05:38.300Z,10.25
2023-02-03T20:08:05.782Z,10.23
2023-02-03T20:10:32.921Z,10.15
2023-02-03T20:13:00.717Z,10.09
2023-02-03T20:15:27.583Z,10.06
2023-02-03T20:17:54.382Z,10.02
2023-02-03T20:20:21.530Z,10.04
2023-02-03T20:22:48.658Z,9.90
2023-02-03T20:25:17.045Z,9.91
2023-02-03T20:27:43.740Z,9.83
2023-02-03T20:30:12.218Z,9.81
2023-02-03T20:32:39.287Z,9.83
2023-02-03T20:35:06.775Z,9.76
2023-02-03T20:37:35.923Z,9.72
2023-02-03T20:40:06.282Z,9.72
2023-02-03T20:42:34.280Z,9.76
2023-02-03T20:45:01.194Z,9.71
2023-02-03T20:47:27.816Z,9.62
2023-02-03T20:49:54.662Z,9.58
2023-02-03T20:52:21.405Z,9.65
2023-02-03T20:54:48.100Z,9.57
2023-02-03T20:57:17.755Z,9.51
2023-02-03T20:59:45.662Z,9.56
2023-02-03T21:02:22.714Z,9.50
2023-02-03T21:04:58.404Z,9.49
2023-02-03T21:07:27.758Z,9.37
2023-02-03T21:09:54.639Z,9.42
2023-02-03T21:12:21.673Z,9.36
2023-02-03T21:14:48.958Z,9.33
2023-02-03T21:17:26.708Z,9.29
2023-02-03T21:19:54.991Z,9.24
2023-02-03T21:22:26.133Z,9.26
2023-02-03T21:25:00.739Z,9.19
2023-02-03T21:27:32.600Z,9.14
2023-02-03T21:30:02.585Z,9.07
2023-02-03T21:32:40.666Z,9.03
2023-02-03T21:35:33.753Z,8.87
2023-02-03T21:38:03.892Z,8.74
2023-02-03T21:40:35.061Z,8.61
2023-02-03T21:43:03.436Z,8.66
2023-02-03T21:45:41.075Z,8.74
2023-02-03T21:48:26.640Z,8.76
2023-02-03T21:50:55.569Z,8.69
2023-02-03T21:53:26.346Z,8.72
2023-02-03T21:55:53.287Z,8.71
2023-02-03T21:58:36.178Z,8.65
2023-02-03T22:01:06.389Z,8.62
2023-02-03T22:03:40.936Z,8.47
2023-02-03T22:06:20.728Z,8.47
2023-02-03T22:08:49.677Z,8.51
2023-02-03T22:11:19.669Z,8.51
2023-02-03T22:13:47.490Z,8.49
2023-02-03T22:16:15.083Z,8.47
2023-02-03T22:18:41.701Z,8.43
2023-02-03T22:21:08.236Z,8.39
2023-02-03T22:23:34.949Z,8.42
2023-02-03T22:26:01.587Z,8.41
2023-02-03T22:28:28.170Z,8.48
2023-02-03T22:30:55.240Z,8.47
2023-02-03T22:33:21.901Z,8.43
2023-02-03T22:35:48.626Z,8.47
2023-02-03T22:38:15.573Z,8.39
2023-02-03T22:40:42.370Z,8.45
2023-02-03T22:43:09.051Z,8.48
2023-02-03T22:45:35.653Z,8.45
2023-02-03T22:48:02.265Z,8.41
2023-02-03T22:50:35.337Z,8.38
2023-02-03T22:53:04.379Z,8.42
2023-02-03T22:55:32.577Z,8.43
2023-02-03T22:57:59.511Z,8.43
2023-02-03T23:00:26.760Z,8.42
2023-02-03T23:02:53.948Z,8.42
2023-02-03T23:05:21.960Z,8.36
2023-02-03T23:07:49.726Z,8.33
2023-02-03T23:10:31.177Z,8.37
2023-02-03T23:12:59.122Z,8.38
2023-02-03T23:15:26.637Z,8.32
2023-02-03T23:17:53.252Z,8.37
2023-02-03T23:20:19.969Z,8.42
2023-02-03T23:22:47.757Z,8.36
2023-02-03T23:25:14.720Z,8.41
2023-02-03T23:27:41.641Z,8.47
2023-02-03T23:30:08.910Z,8.48
2023-02-03T23:32:35.758Z,8.53
2023-02-03T23:35:35.147Z,8.53
2023-02-03T23:38:01.866Z,8.58
2023-02-03T23:40:29.208Z,8.53
2023-02-03T23:42:56.213Z,8.53
2023-02-03T23:45:22.870Z,8.58
2023-02-03T23:47:49.626Z,8.60
2023-02-03T23:50:19.070Z,8.63
2023-02-03T23:52:47.182Z,8.64
2023-02-03T23:55:20.759Z,8.67
2023-02-03T23:57:47.973Z,8.71
